sensor_id;sensor_type;location;lat;lon;timestamp;P1;durP1;ratioP1;P2;durP2;ratioP2
12451;SDS011;72521;48.924;12.204;2024-02-26T00:04:57;25.03;;;15.53;;
12451;SDS011;72521;48.924;12.204;2024-02-26T00:10:01;30.50;;;16.37;;
12451;SDS011;72521;48.924;12.204;2024-02-26T00:15:07;30.93;;;16.13;;
12451;SDS011;72521;48.924;12.204;2024-02-26T00:20:12;29.10;;;16.63;;
12451;SDS011;72521;48.924;12.204;2024-02-26T00:25:17;29.90;;;16.07;;
12451;SDS011;72521;48.924;12.204;2024-02-26T00:30:23;33.23;;;17.23;;
12451;SDS011;72521;48.924;12.204;2024-02-26T00:35:27;36.17;;;19.13;;
12451;SDS011;72521;48.924;12.204;2024-02-26T00:40:31;31.00;;;17.53;;
12451;SDS011;72521;48.924;12.204;2024-02-26T00:45:37;34.67;;;17.80;;
12451;SDS011;72521;48.924;12.204;2024-02-26T00:50:41;30.57;;;15.50;;
12451;SDS011;72521;48.924;12.204;2024-02-26T00:55:45;31.63;;;17.60;;
12451;SDS011;72521;48.924;12.204;2024-02-26T01:00:51;33.13;;;17.60;;
12451;SDS011;72521;48.924;12.204;2024-02-26T01:05:57;33.93;;;17.00;;
12451;SDS011;72521;48.924;12.204;2024-02-26T01:11:01;35.17;;;17.90;;
12451;SDS011;72521;48.924;12.204;2024-02-26T01:16:07;35.80;;;16.50;;
12451;SDS011;72521;48.924;12.204;2024-02-26T01:21:12;34.83;;;17.70;;
12451;SDS011;72521;48.924;12.204;2024-02-26T01:26:16;30.20;;;16.50;;
12451;SDS011;72521;48.924;12.204;2024-02-26T01:31:22;29.80;;;15.33;;
12451;SDS011;72521;48.924;12.204;2024-02-26T01:36:26;35.60;;;17.67;;
12451;SDS011;72521;48.924;12.204;2024-02-26T01:41:30;32.07;;;16.30;;
12451;SDS011;72521;48.924;12.204;2024-02-26T01:46:35;31.33;;;16.33;;
12451;SDS011;72521;48.924;12.204;2024-02-26T01:51:40;29.40;;;15.17;;
12451;SDS011;72521;48.924;12.204;2024-02-26T01:56:45;29.13;;;15.23;;
12451;SDS011;72521;48.924;12.204;2024-02-26T02:01:52;29.47;;;15.00;;
12451;SDS011;72521;48.924;12.204;2024-02-26T02:07:01;28.00;;;15.37;;
12451;SDS011;72521;48.924;12.204;2024-02-26T02:12:07;27.73;;;14.87;;
12451;SDS011;72521;48.924;12.204;2024-02-26T02:17:13;29.03;;;15.00;;
12451;SDS011;72521;48.924;12.204;2024-02-26T02:22:19;33.00;;;16.13;;
12451;SDS011;72521;48.924;12.204;2024-02-26T02:27:24;31.37;;;16.37;;
12451;SDS011;72521;48.924;12.204;2024-02-26T02:32:30;38.93;;;16.33;;
12451;SDS011;72521;48.924;12.204;2024-02-26T02:37:35;32.33;;;16.73;;
12451;SDS011;72521;48.924;12.204;2024-02-26T02:42:40;28.90;;;16.27;;
12451;SDS011;72521;48.924;12.204;2024-02-26T02:47:44;36.10;;;17.37;;
12451;SDS011;72521;48.924;12.204;2024-02-26T02:52:49;33.63;;;16.40;;
12451;SDS011;72521;48.924;12.204;2024-02-26T02:57:53;31.63;;;15.50;;
12451;SDS011;72521;48.924;12.204;2024-02-26T03:02:57;38.60;;;17.93;;
12451;SDS011;72521;48.924;12.204;2024-02-26T03:08:03;31.83;;;15.83;;
12451;SDS011;72521;48.924;12.204;2024-02-26T03:13:07;32.17;;;15.67;;
12451;SDS011;72521;48.924;12.204;2024-02-26T03:18:11;35.00;;;17.00;;
12451;SDS011;72521;48.924;12.204;2024-02-26T03:23:17;31.20;;;16.10;;
12451;SDS011;72521;48.924;12.204;2024-02-26T03:28:22;35.13;;;15.67;;
12451;SDS011;72521;48.924;12.204;2024-02-26T03:33:26;33.60;;;17.17;;
12451;SDS011;72521;48.924;12.204;2024-02-26T03:38:32;29.30;;;14.63;;
12451;SDS011;72521;48.924;12.204;2024-02-26T03:43:36;33.10;;;16.97;;
12451;SDS011;72521;48.924;12.204;2024-02-26T03:48:40;31.40;;;15.03;;
12451;SDS011;72521;48.924;12.204;2024-02-26T03:53:46;30.20;;;15.80;;
12451;SDS011;72521;48.924;12.204;2024-02-26T03:58:49;30.27;;;15.57;;
12451;SDS011;72521;48.924;12.204;2024-02-26T04:03:54;26.33;;;15.90;;
12451;SDS011;72521;48.924;12.204;2024-02-26T04:09:00;28.20;;;14.77;;
12451;SDS011;72521;48.924;12.204;2024-02-26T04:14:05;30.00;;;15.50;;
12451;SDS011;72521;48.924;12.204;2024-02-26T04:19:10;25.07;;;13.17;;
12451;SDS011;72521;48.924;12.204;2024-02-26T04:24:16;28.30;;;17.03;;
12451;SDS011;72521;48.924;12.204;2024-02-26T04:29:20;27.07;;;13.70;;
12451;SDS011;72521;48.924;12.204;2024-02-26T04:34:24;26.17;;;14.13;;
12451;SDS011;72521;48.924;12.204;2024-02-26T04:39:30;24.80;;;13.77;;
12451;SDS011;72521;48.924;12.204;2024-02-26T04:44:34;25.10;;;13.40;;
12451;SDS011;72521;48.924;12.204;2024-02-26T04:49:38;27.80;;;13.83;;
12451;SDS011;72521;48.924;12.204;2024-02-26T04:54:43;19.87;;;12.57;;
12451;SDS011;72521;48.924;12.204;2024-02-26T04:59:47;24.23;;;13.10;;
12451;SDS011;72521;48.924;12.204;2024-02-26T05:04:51;25.83;;;12.93;;
12451;SDS011;72521;48.924;12.204;2024-02-26T05:09:56;23.40;;;13.07;;
12451;SDS011;72521;48.924;12.204;2024-02-26T05:15:01;39.73;;;19.93;;
12451;SDS011;72521;48.924;12.204;2024-02-26T05:20:06;25.43;;;13.43;;
12451;SDS011;72521;48.924;12.204;2024-02-26T05:25:12;33.67;;;16.03;;
12451;SDS011;72521;48.924;12.204;2024-02-26T05:30:18;34.77;;;16.13;;
12451;SDS011;72521;48.924;12.204;2024-02-26T05:35:24;20.80;;;11.73;;
12451;SDS011;72521;48.924;12.204;2024-02-26T05:40:29;21.87;;;12.07;;
12451;SDS011;72521;48.924;12.204;2024-02-26T05:45:33;19.50;;;11.33;;
12451;SDS011;72521;48.924;12.204;2024-02-26T05:50:38;24.23;;;11.83;;
12451;SDS011;72521;48.924;12.204;2024-02-26T05:55:43;18.40;;;11.20;;
12451;SDS011;72521;48.924;12.204;2024-02-26T06:00:47;20.17;;;11.03;;
12451;SDS011;72521;48.924;12.204;2024-02-26T06:05:51;18.73;;;10.40;;
12451;SDS011;72521;48.924;12.204;2024-02-26T06:10:57;14.47;;;8.93;;
12451;SDS011;72521;48.924;12.204;2024-02-26T06:16:01;19.23;;;10.00;;
12451;SDS011;72521;48.924;12.204;2024-02-26T06:21:08;17.40;;;8.97;;
12451;SDS011;72521;48.924;12.204;2024-02-26T06:26:14;15.13;;;8.90;;
12451;SDS011;72521;48.924;12.204;2024-02-26T06:31:18;18.20;;;9.57;;
12451;SDS011;72521;48.924;12.204;2024-02-26T06:36:24;16.83;;;10.57;;
12451;SDS011;72521;48.924;12.204;2024-02-26T06:41:29;19.97;;;10.57;;
12451;SDS011;72521;48.924;12.204;2024-02-26T06:46:33;21.03;;;12.23;;
12451;SDS011;72521;48.924;12.204;2024-02-26T06:51:37;16.07;;;9.53;;
12451;SDS011;72521;48.924;12.204;2024-02-26T06:56:42;16.70;;;8.60;;
12451;SDS011;72521;48.924;12.204;2024-02-26T07:01:46;13.27;;;8.50;;
12451;SDS011;72521;48.924;12.204;2024-02-26T07:06:50;16.43;;;9.27;;
12451;SDS011;72521;48.924;12.204;2024-02-26T07:11:56;15.90;;;9.13;;
12451;SDS011;72521;48.924;12.204;2024-02-26T07:17:02;16.93;;;9.87;;
12451;SDS011;72521;48.924;12.204;2024-02-26T07:22:06;15.10;;;9.90;;
12451;SDS011;72521;48.924;12.204;2024-02-26T07:27:12;19.93;;;12.73;;
12451;SDS011;72521;48.924;12.204;2024-02-26T07:32:19;19.13;;;10.93;;
12451;SDS011;72521;48.924;12.204;2024-02-26T07:37:24;21.33;;;11.53;;
12451;SDS011;72521;48.924;12.204;2024-02-26T07:42:29;20.63;;;10.77;;
12451;SDS011;72521;48.924;12.204;2024-02-26T07:47:33;20.10;;;10.93;;
12451;SDS011;72521;48.924;12.204;2024-02-26T07:52:39;16.80;;;12.13;;
12451;SDS011;72521;48.924;12.204;2024-02-26T07:57:44;21.35;;;11.88;;
12451;SDS011;72521;48.924;12.204;2024-02-26T08:02:48;14.90;;;10.45;;
12451;SDS011;72521;48.924;12.204;2024-02-26T08:07:52;13.32;;;10.32;;
12451;SDS011;72521;48.924;12.204;2024-02-26T08:12:58;15.85;;;10.73;;
12451;SDS011;72521;48.924;12.204;2024-02-26T08:18:07;14.35;;;10.27;;
12451;SDS011;72521;48.924;12.204;2024-02-26T08:23:12;13.68;;;9.13;;
12451;SDS011;72521;48.924;12.204;2024-02-26T08:28:18;8.73;;;5.13;;
12451;SDS011;72521;48.924;12.204;2024-02-26T08:33:21;5.25;;;4.38;;
12451;SDS011;72521;48.924;12.204;2024-02-26T08:38:25;4.65;;;3.25;;
12451;SDS011;72521;48.924;12.204;2024-02-26T08:43:31;4.63;;;3.20;;
12451;SDS011;72521;48.924;12.204;2024-02-26T08:48:34;4.78;;;3.13;;
12451;SDS011;72521;48.924;12.204;2024-02-26T08:53:39;5.13;;;3.22;;
12451;SDS011;72521;48.924;12.204;2024-02-26T08:58:46;6.18;;;3.33;;
12451;SDS011;72521;48.924;12.204;2024-02-26T09:03:50;5.18;;;3.40;;
12451;SDS011;72521;48.924;12.204;2024-02-26T09:08:55;7.03;;;3.78;;
12451;SDS011;72521;48.924;12.204;2024-02-26T09:14:04;6.35;;;3.50;;
12451;SDS011;72521;48.924;12.204;2024-02-26T09:19:08;6.53;;;3.40;;
12451;SDS011;72521;48.924;12.204;2024-02-26T09:24:12;4.15;;;2.97;;
12451;SDS011;72521;48.924;12.204;2024-02-26T09:29:18;3.95;;;3.05;;
12451;SDS011;72521;48.924;12.204;2024-02-26T09:34:22;3.75;;;3.20;;
12451;SDS011;72521;48.924;12.204;2024-02-26T09:39:26;3.88;;;3.10;;
12451;SDS011;72521;48.924;12.204;2024-02-26T09:44:31;4.00;;;3.15;;
12451;SDS011;72521;48.924;12.204;2024-02-26T09:49:40;4.22;;;3.60;;
12451;SDS011;72521;48.924;12.204;2024-02-26T09:54:46;4.00;;;2.72;;
12451;SDS011;72521;48.924;12.204;2024-02-26T09:59:53;3.17;;;2.80;;
12451;SDS011;72521;48.924;12.204;2024-02-26T10:05:02;5.40;;;2.83;;
12451;SDS011;72521;48.924;12.204;2024-02-26T10:10:08;3.63;;;2.42;;
12451;SDS011;72521;48.924;12.204;2024-02-26T10:15:13;3.35;;;2.85;;
12451;SDS011;72521;48.924;12.204;2024-02-26T10:20:19;2.42;;;2.22;;
12451;SDS011;72521;48.924;12.204;2024-02-26T10:25:26;3.03;;;2.22;;
12451;SDS011;72521;48.924;12.204;2024-02-26T10:30:31;4.00;;;2.35;;
12451;SDS011;72521;48.924;12.204;2024-02-26T10:35:39;4.95;;;2.63;;
12451;SDS011;72521;48.924;12.204;2024-02-26T10:40:48;4.07;;;2.75;;
12451;SDS011;72521;48.924;12.204;2024-02-26T10:45:55;3.50;;;2.40;;
12451;SDS011;72521;48.924;12.204;2024-02-26T10:50:59;5.88;;;4.35;;
12451;SDS011;72521;48.924;12.204;2024-02-26T10:56:04;3.33;;;2.40;;
12451;SDS011;72521;48.924;12.204;2024-02-26T11:01:11;2.85;;;2.13;;
12451;SDS011;72521;48.924;12.204;2024-02-26T11:06:17;2.30;;;2.10;;
12451;SDS011;72521;48.924;12.204;2024-02-26T11:11:22;2.42;;;2.15;;
12451;SDS011;72521;48.924;12.204;2024-02-26T11:16:31;2.80;;;2.03;;
12451;SDS011;72521;48.924;12.204;2024-02-26T11:21:37;3.60;;;2.47;;
12451;SDS011;72521;48.924;12.204;2024-02-26T11:26:42;6.35;;;2.60;;
12451;SDS011;72521;48.924;12.204;2024-02-26T11:31:52;3.28;;;2.00;;
12451;SDS011;72521;48.924;12.204;2024-02-26T11:36:56;4.32;;;3.17;;
12451;SDS011;72521;48.924;12.204;2024-02-26T11:42:04;2.50;;;2.20;;
12451;SDS011;72521;48.924;12.204;2024-02-26T11:47:12;4.18;;;2.83;;
12451;SDS011;72521;48.924;12.204;2024-02-26T11:52:17;2.63;;;2.35;;
12451;SDS011;72521;48.924;12.204;2024-02-26T11:57:21;2.88;;;2.42;;
12451;SDS011;72521;48.924;12.204;2024-02-26T12:02:43;4.03;;;2.50;;
12451;SDS011;72521;48.924;12.204;2024-02-26T12:07:49;4.20;;;2.85;;
12451;SDS011;72521;48.924;12.204;2024-02-26T12:12:59;4.68;;;2.67;;
12451;SDS011;72521;48.924;12.204;2024-02-26T12:18:15;2.75;;;2.40;;
12451;SDS011;72521;48.924;12.204;2024-02-26T12:23:22;2.38;;;2.17;;
12451;SDS011;72521;48.924;12.204;2024-02-26T12:28:27;4.10;;;2.92;;
12451;SDS011;72521;48.924;12.204;2024-02-26T12:33:32;3.80;;;2.92;;
12451;SDS011;72521;48.924;12.204;2024-02-26T12:38:38;4.15;;;2.70;;
12451;SDS011;72521;48.924;12.204;2024-02-26T12:43:43;2.60;;;2.08;;
12451;SDS011;72521;48.924;12.204;2024-02-26T12:48:51;3.30;;;1.90;;
12451;SDS011;72521;48.924;12.204;2024-02-26T12:54:00;2.40;;;1.80;;
12451;SDS011;72521;48.924;12.204;2024-02-26T12:59:04;3.40;;;1.80;;
12451;SDS011;72521;48.924;12.204;2024-02-26T13:04:10;2.33;;;1.50;;
12451;SDS011;72521;48.924;12.204;2024-02-26T13:09:14;2.75;;;1.50;;
12451;SDS011;72521;48.924;12.204;2024-02-26T13:14:21;1.40;;;1.15;;
12451;SDS011;72521;48.924;12.204;2024-02-26T13:19:26;3.75;;;0.90;;
12451;SDS011;72521;48.924;12.204;2024-02-26T13:24:30;1.63;;;1.00;;
12451;SDS011;72521;48.924;12.204;2024-02-26T13:29:35;1.58;;;1.10;;
12451;SDS011;72521;48.924;12.204;2024-02-26T13:34:40;1.95;;;1.10;;
12451;SDS011;72521;48.924;12.204;2024-02-26T13:39:44;2.42;;;1.00;;
12451;SDS011;72521;48.924;12.204;2024-02-26T13:44:48;2.55;;;0.90;;
12451;SDS011;72521;48.924;12.204;2024-02-26T13:49:53;1.73;;;0.88;;
12451;SDS011;72521;48.924;12.204;2024-02-26T13:54:57;0.77;;;0.70;;
12451;SDS011;72521;48.924;12.204;2024-02-26T14:00:02;2.15;;;1.00;;
12451;SDS011;72521;48.924;12.204;2024-02-26T14:05:14;1.17;;;0.90;;
12451;SDS011;72521;48.924;12.204;2024-02-26T14:10:18;3.47;;;1.23;;
12451;SDS011;72521;48.924;12.204;2024-02-26T14:15:22;3.50;;;2.03;;
12451;SDS011;72521;48.924;12.204;2024-02-26T14:20:29;5.13;;;2.25;;
12451;SDS011;72521;48.924;12.204;2024-02-26T14:25:34;0.80;;;0.70;;
12451;SDS011;72521;48.924;12.204;2024-02-26T14:30:39;4.72;;;2.47;;
12451;SDS011;72521;48.924;12.204;2024-02-26T14:35:44;2.65;;;1.45;;
12451;SDS011;72521;48.924;12.204;2024-02-26T14:40:48;2.58;;;1.10;;
12451;SDS011;72521;48.924;12.204;2024-02-26T14:45:52;1.48;;;0.70;;
12451;SDS011;72521;48.924;12.204;2024-02-26T14:50:57;1.63;;;0.98;;
12451;SDS011;72521;48.924;12.204;2024-02-26T14:56:02;1.23;;;0.80;;
12451;SDS011;72521;48.924;12.204;2024-02-26T15:01:06;2.40;;;1.30;;
12451;SDS011;72521;48.924;12.204;2024-02-26T15:06:12;3.33;;;2.10;;
12451;SDS011;72521;48.924;12.204;2024-02-26T15:11:16;5.45;;;3.90;;
12451;SDS011;72521;48.924;12.204;2024-02-26T15:16:20;3.60;;;2.53;;
12451;SDS011;72521;48.924;12.204;2024-02-26T15:21:25;3.17;;;2.58;;
12451;SDS011;72521;48.924;12.204;2024-02-26T15:26:29;3.85;;;3.17;;
12451;SDS011;72521;48.924;12.204;2024-02-26T15:31:33;3.85;;;2.50;;
12451;SDS011;72521;48.924;12.204;2024-02-26T15:36:39;7.10;;;3.75;;
12451;SDS011;72521;48.924;12.204;2024-02-26T15:41:44;6.60;;;3.40;;
12451;SDS011;72521;48.924;12.204;2024-02-26T15:46:48;7.35;;;5.90;;
12451;SDS011;72521;48.924;12.204;2024-02-26T15:51:54;5.90;;;5.40;;
12451;SDS011;72521;48.924;12.204;2024-02-26T15:56:58;5.63;;;4.93;;
12451;SDS011;72521;48.924;12.204;2024-02-26T16:02:02;11.05;;;6.13;;
12451;SDS011;72521;48.924;12.204;2024-02-26T16:07:08;5.55;;;4.20;;
12451;SDS011;72521;48.924;12.204;2024-02-26T16:12:23;6.65;;;4.03;;
12451;SDS011;72521;48.924;12.204;2024-02-26T16:17:40;5.25;;;4.03;;
12451;SDS011;72521;48.924;12.204;2024-02-26T16:22:51;5.18;;;4.20;;
12451;SDS011;72521;48.924;12.204;2024-02-26T16:27:56;6.20;;;4.28;;
12451;SDS011;72521;48.924;12.204;2024-02-26T16:33:00;6.85;;;4.88;;
12451;SDS011;72521;48.924;12.204;2024-02-26T16:38:06;7.15;;;4.80;;
12451;SDS011;72521;48.924;12.204;2024-02-26T16:43:10;8.63;;;6.07;;
12451;SDS011;72521;48.924;12.204;2024-02-26T16:48:14;13.98;;;7.72;;
12451;SDS011;72521;48.924;12.204;2024-02-26T16:53:19;12.15;;;7.90;;
12451;SDS011;72521;48.924;12.204;2024-02-26T16:58:23;9.10;;;6.57;;
12451;SDS011;72521;48.924;12.204;2024-02-26T17:03:27;9.40;;;6.85;;
12451;SDS011;72521;48.924;12.204;2024-02-26T17:08:34;12.27;;;6.68;;
12451;SDS011;72521;48.924;12.204;2024-02-26T17:13:46;11.57;;;8.88;;
12451;SDS011;72521;48.924;12.204;2024-02-26T17:18:50;9.50;;;7.55;;
12451;SDS011;72521;48.924;12.204;2024-02-26T17:23:56;10.55;;;7.72;;
12451;SDS011;72521;48.924;12.204;2024-02-26T17:29:02;10.02;;;7.70;;
12451;SDS011;72521;48.924;12.204;2024-02-26T17:34:08;10.48;;;7.85;;
12451;SDS011;72521;48.924;12.204;2024-02-26T17:39:16;10.73;;;7.65;;
12451;SDS011;72521;48.924;12.204;2024-02-26T17:44:20;8.98;;;6.90;;
12451;SDS011;72521;48.924;12.204;2024-02-26T17:49:26;7.63;;;6.28;;
12451;SDS011;72521;48.924;12.204;2024-02-26T17:54:32;10.15;;;6.80;;
12451;SDS011;72521;48.924;12.204;2024-02-26T17:59:36;12.23;;;9.05;;
12451;SDS011;72521;48.924;12.204;2024-02-26T18:04:40;8.68;;;6.90;;
12451;SDS011;72521;48.924;12.204;2024-02-26T18:09:45;8.57;;;7.32;;
12451;SDS011;72521;48.924;12.204;2024-02-26T18:14:49;10.02;;;6.35;;
12451;SDS011;72521;48.924;12.204;2024-02-26T18:19:54;8.45;;;6.88;;
12451;SDS011;72521;48.924;12.204;2024-02-26T18:25:00;10.13;;;7.97;;
12451;SDS011;72521;48.924;12.204;2024-02-26T18:30:04;8.55;;;6.68;;
12451;SDS011;72521;48.924;12.204;2024-02-26T18:35:10;11.20;;;8.52;;
12451;SDS011;72521;48.924;12.204;2024-02-26T18:40:16;9.43;;;7.28;;
12451;SDS011;72521;48.924;12.204;2024-02-26T18:45:20;8.73;;;6.78;;
12451;SDS011;72521;48.924;12.204;2024-02-26T18:50:24;9.20;;;7.05;;
12451;SDS011;72521;48.924;12.204;2024-02-26T18:55:29;14.00;;;7.88;;
12451;SDS011;72521;48.924;12.204;2024-02-26T19:00:34;10.95;;;7.45;;
12451;SDS011;72521;48.924;12.204;2024-02-26T19:05:39;11.77;;;8.02;;
12451;SDS011;72521;48.924;12.204;2024-02-26T19:10:44;12.90;;;7.30;;
12451;SDS011;72521;48.924;12.204;2024-02-26T19:15:49;9.88;;;7.10;;
12451;SDS011;72521;48.924;12.204;2024-02-26T19:20:53;8.73;;;6.82;;
12451;SDS011;72521;48.924;12.204;2024-02-26T19:25:59;9.68;;;7.45;;
12451;SDS011;72521;48.924;12.204;2024-02-26T19:31:06;10.77;;;7.78;;
12451;SDS011;72521;48.924;12.204;2024-02-26T19:36:11;11.68;;;9.23;;
12451;SDS011;72521;48.924;12.204;2024-02-26T19:41:17;10.82;;;8.38;;
12451;SDS011;72521;48.924;12.204;2024-02-26T19:46:21;10.40;;;8.32;;
12451;SDS011;72521;48.924;12.204;2024-02-26T19:51:25;12.65;;;8.43;;
12451;SDS011;72521;48.924;12.204;2024-02-26T19:56:31;12.10;;;8.63;;
12451;SDS011;72521;48.924;12.204;2024-02-26T20:01:37;12.73;;;9.40;;
12451;SDS011;72521;48.924;12.204;2024-02-26T20:06:41;12.77;;;9.60;;
12451;SDS011;72521;48.924;12.204;2024-02-26T20:11:47;13.63;;;9.52;;
12451;SDS011;72521;48.924;12.204;2024-02-26T20:16:51;12.23;;;9.70;;
12451;SDS011;72521;48.924;12.204;2024-02-26T20:21:55;15.48;;;10.05;;
12451;SDS011;72521;48.924;12.204;2024-02-26T20:27:03;12.27;;;8.75;;
12451;SDS011;72521;48.924;12.204;2024-02-26T20:32:09;11.65;;;8.75;;
12451;SDS011;72521;48.924;12.204;2024-02-26T20:37:13;10.93;;;8.65;;
12451;SDS011;72521;48.924;12.204;2024-02-26T20:42:19;13.35;;;10.02;;
12451;SDS011;72521;48.924;12.204;2024-02-26T20:47:23;13.32;;;9.55;;
12451;SDS011;72521;48.924;12.204;2024-02-26T20:52:27;13.82;;;9.20;;
12451;SDS011;72521;48.924;12.204;2024-02-26T20:57:33;13.18;;;10.00;;
12451;SDS011;72521;48.924;12.204;2024-02-26T21:02:38;10.85;;;8.82;;
12451;SDS011;72521;48.924;12.204;2024-02-26T21:07:42;13.55;;;9.98;;
12451;SDS011;72521;48.924;12.204;2024-02-26T21:12:49;13.63;;;10.43;;
12451;SDS011;72521;48.924;12.204;2024-02-26T21:17:55;14.25;;;10.75;;
12451;SDS011;72521;48.924;12.204;2024-02-26T21:22:59;14.82;;;10.88;;
12451;SDS011;72521;48.924;12.204;2024-02-26T21:28:05;13.93;;;9.75;;
12451;SDS011;72521;48.924;12.204;2024-02-26T21:33:09;14.65;;;10.82;;
12451;SDS011;72521;48.924;12.204;2024-02-26T21:38:13;14.10;;;10.18;;
12451;SDS011;72521;48.924;12.204;2024-02-26T21:43:28;16.60;;;11.00;;
12451;SDS011;72521;48.924;12.204;2024-02-26T21:48:33;13.97;;;10.27;;
12451;SDS011;72521;48.924;12.204;2024-02-26T21:53:40;14.50;;;10.07;;
12451;SDS011;72521;48.924;12.204;2024-02-26T21:58:50;14.73;;;10.23;;
12451;SDS011;72521;48.924;12.204;2024-02-26T22:03:54;15.90;;;10.45;;
12451;SDS011;72521;48.924;12.204;2024-02-26T22:08:59;13.77;;;10.07;;
12451;SDS011;72521;48.924;12.204;2024-02-26T22:14:05;18.10;;;10.77;;
12451;SDS011;72521;48.924;12.204;2024-02-26T22:19:09;15.13;;;10.73;;
12451;SDS011;72521;48.924;12.204;2024-02-26T22:24:15;17.37;;;10.70;;
12451;SDS011;72521;48.924;12.204;2024-02-26T22:29:21;13.77;;;9.67;;
12451;SDS011;72521;48.924;12.204;2024-02-26T22:34:28;17.13;;;11.90;;
12451;SDS011;72521;48.924;12.204;2024-02-26T22:39:32;17.08;;;11.18;;
12451;SDS011;72521;48.924;12.204;2024-02-26T22:44:39;14.33;;;10.80;;
12451;SDS011;72521;48.924;12.204;2024-02-26T22:49:43;17.67;;;12.33;;
12451;SDS011;72521;48.924;12.204;2024-02-26T22:54:47;14.67;;;10.80;;
12451;SDS011;72521;48.924;12.204;2024-02-26T22:59:53;17.13;;;12.27;;
12451;SDS011;72521;48.924;12.204;2024-02-26T23:04:57;19.85;;;13.07;;
12451;SDS011;72521;48.924;12.204;2024-02-26T23:10:01;16.30;;;11.83;;
12451;SDS011;72521;48.924;12.204;2024-02-26T23:15:08;16.23;;;11.40;;
12451;SDS011;72521;48.924;12.204;2024-02-26T23:20:13;18.10;;;11.93;;
12451;SDS011;72521;48.924;12.204;2024-02-26T23:25:18;19.07;;;12.13;;
12451;SDS011;72521;48.924;12.204;2024-02-26T23:30:23;20.90;;;12.60;;
12451;SDS011;72521;48.924;12.204;2024-02-26T23:35:28;15.60;;;10.50;;
12451;SDS011;72521;48.924;12.204;2024-02-26T23:40:32;18.23;;;12.10;;
12451;SDS011;72521;48.924;12.204;2024-02-26T23:45:37;16.60;;;11.38;;
12451;SDS011;72521;48.924;12.204;2024-02-26T23:50:41;19.37;;;13.47;;
12451;SDS011;72521;48.924;12.204;2024-02-26T23:55:45;15.87;;;11.17;;
